sensor_id;sensor_type;location;lat;lon;timestamp;temperature;humidity
14924;DHT22;7554;43.600;1.480;2022-11-23T00:01:32;9.60;1.00
14924;DHT22;7554;43.600;1.480;2022-11-23T00:04:03;9.50;99.90
14924;DHT22;7554;43.600;1.480;2022-11-23T00:06:32;9.60;99.90
14924;DHT22;7554;43.600;1.480;2022-11-23T00:08:59;9.60;99.90
14924;DHT22;7554;43.600;1.480;2022-11-23T00:11:27;9.50;1.00
14924;DHT22;7554;43.600;1.480;2022-11-23T00:13:55;9.60;1.00
14924;DHT22;7554;43.600;1.480;2022-11-23T00:16:23;9.70;1.00
14924;DHT22;7554;43.600;1.480;2022-11-23T00:18:52;9.70;1.00
14924;DHT22;7554;43.600;1.480;2022-11-23T00:21:22;9.80;1.00
14924;DHT22;7554;43.600;1.480;2022-11-23T00:23:49;9.80;1.00
14924;DHT22;7554;43.600;1.480;2022-11-23T00:26:18;9.70;1.00
14924;DHT22;7554;43.600;1.480;2022-11-23T00:28:45;9.80;9.90
14924;DHT22;7554;43.600;1.480;2022-11-23T00:31:14;9.90;99.90
14924;DHT22;7554;43.600;1.480;2022-11-23T00:33:41;11.30;99.90
14924;DHT22;7554;43.600;1.480;2022-11-23T00:36:12;9.90;1.00
14924;DHT22;7554;43.600;1.480;2022-11-23T00:38:42;10.00;99.90
14924;DHT22;7554;43.600;1.480;2022-11-23T00:41:11;10.00;99.90
14924;DHT22;7554;43.600;1.480;2022-11-23T00:43:39;10.00;99.90
14924;DHT22;7554;43.600;1.480;2022-11-23T00:46:09;10.10;99.90
14924;DHT22;7554;43.600;1.480;2022-11-23T00:48:38;9.90;99.90
14924;DHT22;7554;43.600;1.480;2022-11-23T00:51:07;10.00;99.90
14924;DHT22;7554;43.600;1.480;2022-11-23T00:53:35;10.10;1.00
14924;DHT22;7554;43.600;1.480;2022-11-23T00:56:05;10.10;1.00
14924;DHT22;7554;43.600;1.480;2022-11-23T00:58:32;10.10;1.00
14924;DHT22;7554;43.600;1.480;2022-11-23T01:01:07;10.00;1.00
14924;DHT22;7554;43.600;1.480;2022-11-23T01:03:36;10.00;1.00
14924;DHT22;7554;43.600;1.480;2022-11-23T01:06:05;10.10;1.00
14924;DHT22;7554;43.600;1.480;2022-11-23T01:08:34;10.10;1.00
14924;DHT22;7554;43.600;1.480;2022-11-23T01:11:04;10.20;1.00
14924;DHT22;7554;43.600;1.480;2022-11-23T01:13:31;10.10;1.00
14924;DHT22;7554;43.600;1.480;2022-11-23T01:15:59;10.20;1.00
14924;DHT22;7554;43.600;1.480;2022-11-23T01:18:26;10.10;1.00
14924;DHT22;7554;43.600;1.480;2022-11-23T01:20:54;10.10;1.00
14924;DHT22;7554;43.600;1.480;2022-11-23T01:23:21;10.20;1.00
14924;DHT22;7554;43.600;1.480;2022-11-23T01:25:49;10.20;1.00
14924;DHT22;7554;43.600;1.480;2022-11-23T01:28:18;10.30;1.00
14924;DHT22;7554;43.600;1.480;2022-11-23T01:30:45;10.30;1.00
14924;DHT22;7554;43.600;1.480;2022-11-23T01:33:12;10.40;99.90
14924;DHT22;7554;43.600;1.480;2022-11-23T01:35:40;10.40;99.90
14924;DHT22;7554;43.600;1.480;2022-11-23T01:38:07;10.40;99.90
14924;DHT22;7554;43.600;1.480;2022-11-23T01:40:43;10.50;99.90
14924;DHT22;7554;43.600;1.480;2022-11-23T01:43:14;10.50;99.90
14924;DHT22;7554;43.600;1.480;2022-11-23T01:45:52;10.50;99.90
14924;DHT22;7554;43.600;1.480;2022-11-23T01:48:24;10.50;99.90
14924;DHT22;7554;43.600;1.480;2022-11-23T01:50:53;10.50;99.90
14924;DHT22;7554;43.600;1.480;2022-11-23T01:53:21;10.50;99.90
14924;DHT22;7554;43.600;1.480;2022-11-23T01:55:50;10.60;99.90
14924;DHT22;7554;43.600;1.480;2022-11-23T01:58:20;10.60;99.90
14924;DHT22;7554;43.600;1.480;2022-11-23T02:00:50;10.60;1.00
14924;DHT22;7554;43.600;1.480;2022-11-23T02:03:17;10.70;1.00
14924;DHT22;7554;43.600;1.480;2022-11-23T02:05:48;10.70;1.00
14924;DHT22;7554;43.600;1.480;2022-11-23T02:08:18;10.70;1.00
14924;DHT22;7554;43.600;1.480;2022-11-23T02:10:46;10.80;1.00
14924;DHT22;7554;43.600;1.480;2022-11-23T02:13:14;10.80;1.00
14924;DHT22;7554;43.600;1.480;2022-11-23T02:15:41;10.80;1.00
14924;DHT22;7554;43.600;1.480;2022-11-23T02:18:14;10.80;1.00
14924;DHT22;7554;43.600;1.480;2022-11-23T02:20:43;10.80;1.00
14924;DHT22;7554;43.600;1.480;2022-11-23T02:23:18;10.80;1.00
14924;DHT22;7554;43.600;1.480;2022-11-23T02:25:55;10.90;1.00
14924;DHT22;7554;43.600;1.480;2022-11-23T02:28:28;10.90;1.00
14924;DHT22;7554;43.600;1.480;2022-11-23T02:30:55;10.90;1.00
14924;DHT22;7554;43.600;1.480;2022-11-23T02:33:23;10.90;99.90
14924;DHT22;7554;43.600;1.480;2022-11-23T02:35:52;11.00;1.00
14924;DHT22;7554;43.600;1.480;2022-11-23T02:38:20;11.00;1.00
14924;DHT22;7554;43.600;1.480;2022-11-23T02:40:48;11.00;1.00
14924;DHT22;7554;43.600;1.480;2022-11-23T02:43:17;11.00;1.00
14924;DHT22;7554;43.600;1.480;2022-11-23T02:45:49;11.00;1.00
14924;DHT22;7554;43.600;1.480;2022-11-23T02:48:17;11.00;1.00
14924;DHT22;7554;43.600;1.480;2022-11-23T02:50:44;11.00;1.00
14924;DHT22;7554;43.600;1.480;2022-11-23T02:53:13;11.00;1.00
14924;DHT22;7554;43.600;1.480;2022-11-23T02:55:40;11.00;1.00
14924;DHT22;7554;43.600;1.480;2022-11-23T02:58:08;11.00;1.00
14924;DHT22;7554;43.600;1.480;2022-11-23T03:00:37;11.10;1.00
14924;DHT22;7554;43.600;1.480;2022-11-23T03:03:04;11.10;1.00
14924;DHT22;7554;43.600;1.480;2022-11-23T03:05:33;11.20;1.00
14924;DHT22;7554;43.600;1.480;2022-11-23T03:08:01;11.10;1.00
14924;DHT22;7554;43.600;1.480;2022-11-23T03:10:28;11.10;1.00
14924;DHT22;7554;43.600;1.480;2022-11-23T03:12:56;11.20;1.00
14924;DHT22;7554;43.600;1.480;2022-11-23T03:15:23;11.20;1.00
14924;DHT22;7554;43.600;1.480;2022-11-23T03:17:52;11.10;1.00
14924;DHT22;7554;43.600;1.480;2022-11-23T03:20:20;11.20;1.00
14924;DHT22;7554;43.600;1.480;2022-11-23T03:22:47;11.20;1.00
14924;DHT22;7554;43.600;1.480;2022-11-23T03:25:14;11.20;1.00
14924;DHT22;7554;43.600;1.480;2022-11-23T03:27:42;11.30;1.00
14924;DHT22;7554;43.600;1.480;2022-11-23T03:30:10;11.30;1.00
14924;DHT22;7554;43.600;1.480;2022-11-23T03:32:37;11.30;1.00
14924;DHT22;7554;43.600;1.480;2022-11-23T03:35:07;11.30;1.00
14924;DHT22;7554;43.600;1.480;2022-11-23T03:37:35;11.30;13.10
14924;DHT22;7554;43.600;1.480;2022-11-23T03:40:02;11.30;22.60
14924;DHT22;7554;43.600;1.480;2022-11-23T03:42:29;11.30;29.00
14924;DHT22;7554;43.600;1.480;2022-11-23T03:44:57;11.30;26.70
14924;DHT22;7554;43.600;1.480;2022-11-23T03:47:24;11.40;28.20
14924;DHT22;7554;43.600;1.480;2022-11-23T03:49:51;11.40;51.40
14924;DHT22;7554;43.600;1.480;2022-11-23T03:52:20;11.40;57.10
14924;DHT22;7554;43.600;1.480;2022-11-23T03:54:48;11.50;64.10
14924;DHT22;7554;43.600;1.480;2022-11-23T03:57:15;11.40;60.70
14924;DHT22;7554;43.600;1.480;2022-11-23T03:59:42;11.50;66.70
14924;DHT22;7554;43.600;1.480;2022-11-23T04:02:09;11.50;4.40
14924;DHT22;7554;43.600;1.480;2022-11-23T04:04:37;11.50;48.70
14924;DHT22;7554;43.600;1.480;2022-11-23T04:07:04;11.40;43.20
14924;DHT22;7554;43.600;1.480;2022-11-23T04:09:33;11.50;52.00
14924;DHT22;7554;43.600;1.480;2022-11-23T04:12:00;11.50;51.10
14924;DHT22;7554;43.600;1.480;2022-11-23T04:14:28;11.50;54.30
14924;DHT22;7554;43.600;1.480;2022-11-23T04:16:55;11.60;52.20
14924;DHT22;7554;43.600;1.480;2022-11-23T04:19:23;11.60;51.10
14924;DHT22;7554;43.600;1.480;2022-11-23T04:21:50;11.60;30.00
14924;DHT22;7554;43.600;1.480;2022-11-23T04:24:18;11.60;20.50
14924;DHT22;7554;43.600;1.480;2022-11-23T04:26:46;11.60;99.90
14924;DHT22;7554;43.600;1.480;2022-11-23T04:29:14;11.60;99.90
14924;DHT22;7554;43.600;1.480;2022-11-23T04:31:41;11.60;99.90
14924;DHT22;7554;43.600;1.480;2022-11-23T04:34:09;11.70;99.90
14924;DHT22;7554;43.600;1.480;2022-11-23T04:36:37;11.70;99.90
14924;DHT22;7554;43.600;1.480;2022-11-23T04:39:04;11.70;99.90
14924;DHT22;7554;43.600;1.480;2022-11-23T04:41:32;11.70;99.90
14924;DHT22;7554;43.600;1.480;2022-11-23T04:44:01;11.80;99.90
14924;DHT22;7554;43.600;1.480;2022-11-23T04:46:28;11.80;99.90
14924;DHT22;7554;43.600;1.480;2022-11-23T04:48:56;11.80;99.90
14924;DHT22;7554;43.600;1.480;2022-11-23T04:51:23;11.80;99.90
14924;DHT22;7554;43.600;1.480;2022-11-23T04:53:51;11.90;99.90
14924;DHT22;7554;43.600;1.480;2022-11-23T04:56:18;11.80;99.90
14924;DHT22;7554;43.600;1.480;2022-11-23T04:58:45;11.80;99.90
14924;DHT22;7554;43.600;1.480;2022-11-23T05:01:14;11.80;99.90
14924;DHT22;7554;43.600;1.480;2022-11-23T05:03:41;11.90;99.90
14924;DHT22;7554;43.600;1.480;2022-11-23T05:06:09;11.90;99.90
14924;DHT22;7554;43.600;1.480;2022-11-23T05:08:36;11.90;99.90
14924;DHT22;7554;43.600;1.480;2022-11-23T05:11:04;11.90;99.90
14924;DHT22;7554;43.600;1.480;2022-11-23T05:13:33;12.00;99.90
14924;DHT22;7554;43.600;1.480;2022-11-23T05:16:00;12.00;98.00
14924;DHT22;7554;43.600;1.480;2022-11-23T05:18:29;11.90;69.80
14924;DHT22;7554;43.600;1.480;2022-11-23T05:20:56;11.90;1.00
14924;DHT22;7554;43.600;1.480;2022-11-23T05:23:24;11.90;1.00
14924;DHT22;7554;43.600;1.480;2022-11-23T05:25:51;11.90;1.00
14924;DHT22;7554;43.600;1.480;2022-11-23T05:28:20;11.90;1.00
14924;DHT22;7554;43.600;1.480;2022-11-23T05:30:47;12.00;1.00
14924;DHT22;7554;43.600;1.480;2022-11-23T05:33:15;12.00;99.90
14924;DHT22;7554;43.600;1.480;2022-11-23T05:35:43;12.00;99.90
14924;DHT22;7554;43.600;1.480;2022-11-23T05:38:11;12.00;99.90
14924;DHT22;7554;43.600;1.480;2022-11-23T05:40:38;12.00;99.90
14924;DHT22;7554;43.600;1.480;2022-11-23T05:43:06;12.00;99.90
14924;DHT22;7554;43.600;1.480;2022-11-23T05:45:33;12.00;99.90
14924;DHT22;7554;43.600;1.480;2022-11-23T05:48:00;12.00;99.90
14924;DHT22;7554;43.600;1.480;2022-11-23T05:50:28;12.00;99.90
14924;DHT22;7554;43.600;1.480;2022-11-23T05:52:58;12.00;99.90
14924;DHT22;7554;43.600;1.480;2022-11-23T05:55:26;12.00;99.90
14924;DHT22;7554;43.600;1.480;2022-11-23T05:57:53;12.30;99.90
14924;DHT22;7554;43.600;1.480;2022-11-23T06:00:21;12.00;99.90
14924;DHT22;7554;43.600;1.480;2022-11-23T06:02:48;11.90;99.90
14924;DHT22;7554;43.600;1.480;2022-11-23T06:05:16;12.00;99.90
14924;DHT22;7554;43.600;1.480;2022-11-23T06:07:43;12.00;99.90
14924;DHT22;7554;43.600;1.480;2022-11-23T06:10:12;12.00;99.90
14924;DHT22;7554;43.600;1.480;2022-11-23T06:12:40;12.00;99.90
14924;DHT22;7554;43.600;1.480;2022-11-23T06:15:08;12.00;99.90
14924;DHT22;7554;43.600;1.480;2022-11-23T06:17:35;12.00;99.90
14924;DHT22;7554;43.600;1.480;2022-11-23T06:20:04;12.00;99.90
14924;DHT22;7554;43.600;1.480;2022-11-23T06:22:31;12.00;99.90
14924;DHT22;7554;43.600;1.480;2022-11-23T06:24:59;12.10;99.90
14924;DHT22;7554;43.600;1.480;2022-11-23T06:27:28;12.10;99.90
14924;DHT22;7554;43.600;1.480;2022-11-23T06:29:55;12.10;99.90
14924;DHT22;7554;43.600;1.480;2022-11-23T06:32:22;12.10;99.90
14924;DHT22;7554;43.600;1.480;2022-11-23T06:34:50;12.10;99.90
14924;DHT22;7554;43.600;1.480;2022-11-23T06:37:17;12.10;99.90
14924;DHT22;7554;43.600;1.480;2022-11-23T06:39:44;12.10;99.90
14924;DHT22;7554;43.600;1.480;2022-11-23T06:42:12;12.10;99.90
14924;DHT22;7554;43.600;1.480;2022-11-23T06:44:41;12.10;99.90
14924;DHT22;7554;43.600;1.480;2022-11-23T06:47:08;12.10;99.90
14924;DHT22;7554;43.600;1.480;2022-11-23T06:49:35;12.00;99.90
14924;DHT22;7554;43.600;1.480;2022-11-23T06:52:03;11.90;99.90
14924;DHT22;7554;43.600;1.480;2022-11-23T06:54:31;12.10;99.90
14924;DHT22;7554;43.600;1.480;2022-11-23T06:56:58;12.10;99.90
14924;DHT22;7554;43.600;1.480;2022-11-23T06:59:26;12.10;99.90
14924;DHT22;7554;43.600;1.480;2022-11-23T07:01:54;12.10;99.90
14924;DHT22;7554;43.600;1.480;2022-11-23T07:04:22;12.10;99.90
14924;DHT22;7554;43.600;1.480;2022-11-23T07:06:49;12.10;99.90
14924;DHT22;7554;43.600;1.480;2022-11-23T07:09:17;12.20;99.90
14924;DHT22;7554;43.600;1.480;2022-11-23T07:11:44;12.20;99.90
14924;DHT22;7554;43.600;1.480;2022-11-23T07:14:12;12.10;99.90
14924;DHT22;7554;43.600;1.480;2022-11-23T07:16:39;12.20;99.90
14924;DHT22;7554;43.600;1.480;2022-11-23T07:19:08;12.20;99.90
14924;DHT22;7554;43.600;1.480;2022-11-23T07:21:36;12.30;99.90
14924;DHT22;7554;43.600;1.480;2022-11-23T07:24:04;12.30;99.90
14924;DHT22;7554;43.600;1.480;2022-11-23T07:26:31;12.50;99.90
14924;DHT22;7554;43.600;1.480;2022-11-23T07:29:00;12.30;99.90
14924;DHT22;7554;43.600;1.480;2022-11-23T07:31:28;12.30;99.90
14924;DHT22;7554;43.600;1.480;2022-11-23T07:33:56;12.10;99.90
14924;DHT22;7554;43.600;1.480;2022-11-23T07:36:25;12.20;99.90
14924;DHT22;7554;43.600;1.480;2022-11-23T07:38:52;12.10;99.90
14924;DHT22;7554;43.600;1.480;2022-11-23T07:41:20;12.50;99.90
14924;DHT22;7554;43.600;1.480;2022-11-23T07:43:47;12.10;99.90
14924;DHT22;7554;43.600;1.480;2022-11-23T07:46:15;12.10;99.90
14924;DHT22;7554;43.600;1.480;2022-11-23T07:48:43;12.30;99.90
14924;DHT22;7554;43.600;1.480;2022-11-23T07:51:10;12.50;99.90
14924;DHT22;7554;43.600;1.480;2022-11-23T07:53:39;12.40;99.90
14924;DHT22;7554;43.600;1.480;2022-11-23T07:56:07;12.10;99.90
14924;DHT22;7554;43.600;1.480;2022-11-23T07:58:34;12.40;99.90
14924;DHT22;7554;43.600;1.480;2022-11-23T08:01:02;12.60;99.90
14924;DHT22;7554;43.600;1.480;2022-11-23T08:03:29;12.20;99.90
14924;DHT22;7554;43.600;1.480;2022-11-23T08:05:57;12.70;99.90
14924;DHT22;7554;43.600;1.480;2022-11-23T08:08:24;12.30;99.90
14924;DHT22;7554;43.600;1.480;2022-11-23T08:10:53;12.30;99.90
14924;DHT22;7554;43.600;1.480;2022-11-23T08:13:21;12.70;99.90
14924;DHT22;7554;43.600;1.480;2022-11-23T08:15:49;12.10;99.90
14924;DHT22;7554;43.600;1.480;2022-11-23T08:18:17;12.30;99.90
14924;DHT22;7554;43.600;1.480;2022-11-23T08:20:44;12.40;99.90
14924;DHT22;7554;43.600;1.480;2022-11-23T08:23:11;12.40;99.90
14924;DHT22;7554;43.600;1.480;2022-11-23T08:25:39;12.30;99.90
14924;DHT22;7554;43.600;1.480;2022-11-23T08:28:08;12.40;99.90
14924;DHT22;7554;43.600;1.480;2022-11-23T08:30:35;12.50;99.90
14924;DHT22;7554;43.600;1.480;2022-11-23T08:33:03;12.40;99.90
14924;DHT22;7554;43.600;1.480;2022-11-23T08:35:33;12.60;99.90
14924;DHT22;7554;43.600;1.480;2022-11-23T08:38:01;12.50;99.90
14924;DHT22;7554;43.600;1.480;2022-11-23T08:40:29;12.50;99.90
14924;DHT22;7554;43.600;1.480;2022-11-23T08:42:56;12.50;99.90
14924;DHT22;7554;43.600;1.480;2022-11-23T08:45:25;12.70;99.90
14924;DHT22;7554;43.600;1.480;2022-11-23T08:47:53;12.70;99.90
14924;DHT22;7554;43.600;1.480;2022-11-23T08:50:20;12.60;99.90
14924;DHT22;7554;43.600;1.480;2022-11-23T08:52:53;12.80;99.90
14924;DHT22;7554;43.600;1.480;2022-11-23T08:55:21;12.70;99.90
14924;DHT22;7554;43.600;1.480;2022-11-23T08:57:49;12.90;99.90
14924;DHT22;7554;43.600;1.480;2022-11-23T09:00:17;12.80;99.90
14924;DHT22;7554;43.600;1.480;2022-11-23T09:02:46;12.70;99.90
14924;DHT22;7554;43.600;1.480;2022-11-23T09:05:14;12.70;99.90
14924;DHT22;7554;43.600;1.480;2022-11-23T09:07:41;12.70;99.90
14924;DHT22;7554;43.600;1.480;2022-11-23T09:10:09;12.80;99.90
14924;DHT22;7554;43.600;1.480;2022-11-23T09:12:36;12.70;99.90
14924;DHT22;7554;43.600;1.480;2022-11-23T09:15:05;12.90;99.90
14924;DHT22;7554;43.600;1.480;2022-11-23T09:17:32;13.00;99.90
14924;DHT22;7554;43.600;1.480;2022-11-23T09:20:01;12.90;99.90
14924;DHT22;7554;43.600;1.480;2022-11-23T09:22:28;13.10;99.90
14924;DHT22;7554;43.600;1.480;2022-11-23T09:24:56;13.00;99.90
14924;DHT22;7554;43.600;1.480;2022-11-23T09:27:23;12.90;99.90
14924;DHT22;7554;43.600;1.480;2022-11-23T09:29:50;13.10;99.90
14924;DHT22;7554;43.600;1.480;2022-11-23T09:32:18;13.10;99.90
14924;DHT22;7554;43.600;1.480;2022-11-23T09:34:45;13.20;99.90
14924;DHT22;7554;43.600;1.480;2022-11-23T09:37:14;13.10;99.90
14924;DHT22;7554;43.600;1.480;2022-11-23T09:39:41;13.40;99.90
14924;DHT22;7554;43.600;1.480;2022-11-23T09:42:20;13.50;99.90
14924;DHT22;7554;43.600;1.480;2022-11-23T09:45:05;13.40;99.90
14924;DHT22;7554;43.600;1.480;2022-11-23T09:47:53;13.50;99.90
14924;DHT22;7554;43.600;1.480;2022-11-23T09:50:26;13.50;99.90
14924;DHT22;7554;43.600;1.480;2022-11-23T09:52:57;13.50;99.90
14924;DHT22;7554;43.600;1.480;2022-11-23T09:55:35;13.60;99.90
14924;DHT22;7554;43.600;1.480;2022-11-23T09:58:05;13.50;99.90
14924;DHT22;7554;43.600;1.480;2022-11-23T10:00:37;13.70;99.90
14924;DHT22;7554;43.600;1.480;2022-11-23T10:03:04;13.70;99.90
14924;DHT22;7554;43.600;1.480;2022-11-23T10:05:36;13.80;99.90
14924;DHT22;7554;43.600;1.480;2022-11-23T10:08:13;13.80;99.90
14924;DHT22;7554;43.600;1.480;2022-11-23T10:10:51;14.10;99.90
14924;DHT22;7554;43.600;1.480;2022-11-23T10:13:33;14.30;99.90
14924;DHT22;7554;43.600;1.480;2022-11-23T10:16:16;14.50;99.90
14924;DHT22;7554;43.600;1.480;2022-11-23T10:18:53;14.70;99.90
14924;DHT22;7554;43.600;1.480;2022-11-23T10:21:29;14.80;99.90
14924;DHT22;7554;43.600;1.480;2022-11-23T10:24:13;14.60;99.90
14924;DHT22;7554;43.600;1.480;2022-11-23T10:26:45;14.50;99.90
14924;DHT22;7554;43.600;1.480;2022-11-23T10:29:16;14.60;99.90
14924;DHT22;7554;43.600;1.480;2022-11-23T10:31:47;14.60;99.90
14924;DHT22;7554;43.600;1.480;2022-11-23T10:34:18;14.70;99.90
14924;DHT22;7554;43.600;1.480;2022-11-23T10:36:49;14.50;99.90
14924;DHT22;7554;43.600;1.480;2022-11-23T10:39:21;14.60;99.90
14924;DHT22;7554;43.600;1.480;2022-11-23T10:41:50;14.90;99.90
14924;DHT22;7554;43.600;1.480;2022-11-23T10:44:29;14.90;99.90
14924;DHT22;7554;43.600;1.480;2022-11-23T10:46:57;15.00;99.90
14924;DHT22;7554;43.600;1.480;2022-11-23T10:49:26;15.30;99.90
14924;DHT22;7554;43.600;1.480;2022-11-23T10:51:56;15.20;99.90
14924;DHT22;7554;43.600;1.480;2022-11-23T10:54:28;15.20;99.90
14924;DHT22;7554;43.600;1.480;2022-11-23T10:56:58;15.20;99.90
14924;DHT22;7554;43.600;1.480;2022-11-23T10:59:32;15.00;99.90
14924;DHT22;7554;43.600;1.480;2022-11-23T11:02:08;14.90;99.90
14924;DHT22;7554;43.600;1.480;2022-11-23T11:04:39;15.00;99.90
14924;DHT22;7554;43.600;1.480;2022-11-23T11:07:20;15.20;99.90
14924;DHT22;7554;43.600;1.480;2022-11-23T11:09:51;15.30;99.90
14924;DHT22;7554;43.600;1.480;2022-11-23T11:12:20;14.80;99.90
14924;DHT22;7554;43.600;1.480;2022-11-23T11:14:55;14.80;99.90
14924;DHT22;7554;43.600;1.480;2022-11-23T11:17:27;14.60;99.90
14924;DHT22;7554;43.600;1.480;2022-11-23T11:19:55;14.60;99.90
14924;DHT22;7554;43.600;1.480;2022-11-23T11:22:29;14.20;99.90
14924;DHT22;7554;43.600;1.480;2022-11-23T11:25:01;14.40;99.90
14924;DHT22;7554;43.600;1.480;2022-11-23T11:27:31;14.50;99.90
14924;DHT22;7554;43.600;1.480;2022-11-23T11:30:04;14.40;99.90
14924;DHT22;7554;43.600;1.480;2022-11-23T11:32:40;14.30;99.90
14924;DHT22;7554;43.600;1.480;2022-11-23T11:35:13;14.40;99.90
14924;DHT22;7554;43.600;1.480;2022-11-23T11:37:44;14.30;99.90
14924;DHT22;7554;43.600;1.480;2022-11-23T11:40:20;14.40;99.90
14924;DHT22;7554;43.600;1.480;2022-11-23T11:42:52;14.30;99.90
14924;DHT22;7554;43.600;1.480;2022-11-23T11:45:23;14.30;99.90
14924;DHT22;7554;43.600;1.480;2022-11-23T11:47:56;14.20;99.90
14924;DHT22;7554;43.600;1.480;2022-11-23T11:50:27;14.10;99.90
14924;DHT22;7554;43.600;1.480;2022-11-23T11:53:01;14.10;99.90
14924;DHT22;7554;43.600;1.480;2022-11-23T11:55:39;14.00;99.90
14924;DHT22;7554;43.600;1.480;2022-11-23T11:58:13;13.90;99.90
14924;DHT22;7554;43.600;1.480;2022-11-23T12:00:41;13.80;99.90
14924;DHT22;7554;43.600;1.480;2022-11-23T12:03:17;14.00;99.90
14924;DHT22;7554;43.600;1.480;2022-11-23T12:05:48;13.90;99.90
14924;DHT22;7554;43.600;1.480;2022-11-23T12:08:20;13.80;99.90
14924;DHT22;7554;43.600;1.480;2022-11-23T12:10:51;13.90;99.90
14924;DHT22;7554;43.600;1.480;2022-11-23T12:13:21;14.00;99.90
14924;DHT22;7554;43.600;1.480;2022-11-23T12:15:53;14.00;99.90
14924;DHT22;7554;43.600;1.480;2022-11-23T12:21:52;14.00;99.90
14924;DHT22;7554;43.600;1.480;2022-11-23T12:24:29;14.20;99.90
14924;DHT22;7554;43.600;1.480;2022-11-23T12:27:08;14.20;99.90
14924;DHT22;7554;43.600;1.480;2022-11-23T12:29:48;14.10;99.90
14924;DHT22;7554;43.600;1.480;2022-11-23T12:32:24;14.20;99.90
14924;DHT22;7554;43.600;1.480;2022-11-23T12:35:30;14.00;99.90
14924;DHT22;7554;43.600;1.480;2022-11-23T12:38:08;13.90;99.90
14924;DHT22;7554;43.600;1.480;2022-11-23T12:40:54;13.90;99.90
14924;DHT22;7554;43.600;1.480;2022-11-23T12:43:27;14.00;99.90
14924;DHT22;7554;43.600;1.480;2022-11-23T12:46:09;14.20;99.90
14924;DHT22;7554;43.600;1.480;2022-11-23T12:48:54;13.90;99.90
14924;DHT22;7554;43.600;1.480;2022-11-23T12:51:30;13.70;99.90
14924;DHT22;7554;43.600;1.480;2022-11-23T12:54:16;14.00;99.90
14924;DHT22;7554;43.600;1.480;2022-11-23T12:56:57;14.20;99.90
14924;DHT22;7554;43.600;1.480;2022-11-23T12:59:38;14.20;99.90
14924;DHT22;7554;43.600;1.480;2022-11-23T13:02:12;14.30;99.90
14924;DHT22;7554;43.600;1.480;2022-11-23T13:08:09;14.20;99.90
14924;DHT22;7554;43.600;1.480;2022-11-23T13:10:51;14.00;99.90
14924;DHT22;7554;43.600;1.480;2022-11-23T13:13:44;13.70;99.90
14924;DHT22;7554;43.600;1.480;2022-11-23T13:16:45;13.70;97.10
14924;DHT22;7554;43.600;1.480;2022-11-23T13:19:35;13.60;1.00
14924;DHT22;7554;43.600;1.480;2022-11-23T13:22:10;13.60;1.00
14924;DHT22;7554;43.600;1.480;2022-11-23T13:25:12;13.80;1.00
14924;DHT22;7554;43.600;1.480;2022-11-23T13:27:42;13.70;1.00
14924;DHT22;7554;43.600;1.480;2022-11-23T13:30:35;13.80;1.00
14924;DHT22;7554;43.600;1.480;2022-11-23T13:33:26;13.80;1.00
14924;DHT22;7554;43.600;1.480;2022-11-23T13:35:56;13.80;1.00
14924;DHT22;7554;43.600;1.480;2022-11-23T13:38:26;13.60;1.00
14924;DHT22;7554;43.600;1.480;2022-11-23T13:40:54;13.80;1.00
14924;DHT22;7554;43.600;1.480;2022-11-23T13:43:24;13.90;1.00
14924;DHT22;7554;43.600;1.480;2022-11-23T13:46:20;14.00;1.00
14924;DHT22;7554;43.600;1.480;2022-11-23T13:48:51;14.20;1.00
14924;DHT22;7554;43.600;1.480;2022-11-23T13:51:24;14.40;1.00
14924;DHT22;7554;43.600;1.480;2022-11-23T13:53:55;14.60;1.00
14924;DHT22;7554;43.600;1.480;2022-11-23T13:56:31;14.60;1.00
14924;DHT22;7554;43.600;1.480;2022-11-23T13:59:28;14.50;1.00
14924;DHT22;7554;43.600;1.480;2022-11-23T14:02:27;14.50;1.00
14924;DHT22;7554;43.600;1.480;2022-11-23T14:08:00;14.50;1.00
14924;DHT22;7554;43.600;1.480;2022-11-23T14:10:30;14.50;1.00
14924;DHT22;7554;43.600;1.480;2022-11-23T14:13:01;14.20;99.90
14924;DHT22;7554;43.600;1.480;2022-11-23T14:15:33;14.20;99.90
14924;DHT22;7554;43.600;1.480;2022-11-23T14:18:22;14.20;99.90
14924;DHT22;7554;43.600;1.480;2022-11-23T14:21:06;14.00;99.90
14924;DHT22;7554;43.600;1.480;2022-11-23T14:24:03;13.90;99.90
14924;DHT22;7554;43.600;1.480;2022-11-23T14:26:38;13.70;99.90
14924;DHT22;7554;43.600;1.480;2022-11-23T14:29:28;14.00;99.90
14924;DHT22;7554;43.600;1.480;2022-11-23T14:32:18;14.00;99.90
14924;DHT22;7554;43.600;1.480;2022-11-23T14:34:59;14.20;99.90
14924;DHT22;7554;43.600;1.480;2022-11-23T14:37:42;14.00;1.00
14924;DHT22;7554;43.600;1.480;2022-11-23T14:40:22;13.90;1.00
14924;DHT22;7554;43.600;1.480;2022-11-23T14:42:53;13.90;1.00
14924;DHT22;7554;43.600;1.480;2022-11-23T14:45:22;13.90;99.90
14924;DHT22;7554;43.600;1.480;2022-11-23T14:47:49;14.10;1.00
14924;DHT22;7554;43.600;1.480;2022-11-23T14:50:22;13.80;99.90
14924;DHT22;7554;43.600;1.480;2022-11-23T14:52:50;13.90;1.00
14924;DHT22;7554;43.600;1.480;2022-11-23T14:55:21;13.80;1.00
14924;DHT22;7554;43.600;1.480;2022-11-23T14:57:50;13.70;99.90
14924;DHT22;7554;43.600;1.480;2022-11-23T15:00:31;13.90;3.00
14924;DHT22;7554;43.600;1.480;2022-11-23T15:03:04;13.90;1.00
14924;DHT22;7554;43.600;1.480;2022-11-23T15:05:35;13.60;99.90
14924;DHT22;7554;43.600;1.480;2022-11-23T15:08:08;13.40;1.00
14924;DHT22;7554;43.600;1.480;2022-11-23T15:10:41;13.40;1.00
14924;DHT22;7554;43.600;1.480;2022-11-23T15:13:20;13.30;1.00
14924;DHT22;7554;43.600;1.480;2022-11-23T15:15:49;13.10;1.00
14924;DHT22;7554;43.600;1.480;2022-11-23T15:18:29;13.00;1.00
14924;DHT22;7554;43.600;1.480;2022-11-23T15:21:00;12.80;1.00
14924;DHT22;7554;43.600;1.480;2022-11-23T15:23:33;13.10;99.90
14924;DHT22;7554;43.600;1.480;2022-11-23T15:26:03;13.30;1.00
14924;DHT22;7554;43.600;1.480;2022-11-23T15:28:34;13.60;1.00
14924;DHT22;7554;43.600;1.480;2022-11-23T15:31:24;13.50;62.00
14924;DHT22;7554;43.600;1.480;2022-11-23T15:33:54;13.70;99.90
14924;DHT22;7554;43.600;1.480;2022-11-23T15:36:25;13.70;1.00
14924;DHT22;7554;43.600;1.480;2022-11-23T15:38:53;14.00;1.00
14924;DHT22;7554;43.600;1.480;2022-11-23T15:41:22;14.00;1.00
14924;DHT22;7554;43.600;1.480;2022-11-23T15:43:51;13.90;1.00
14924;DHT22;7554;43.600;1.480;2022-11-23T15:46:19;14.00;1.00
14924;DHT22;7554;43.600;1.480;2022-11-23T15:48:51;14.00;1.00
14924;DHT22;7554;43.600;1.480;2022-11-23T15:51:25;14.00;99.90
14924;DHT22;7554;43.600;1.480;2022-11-23T15:53:54;14.10;99.90
14924;DHT22;7554;43.600;1.480;2022-11-23T15:56:27;14.20;99.90
14924;DHT22;7554;43.600;1.480;2022-11-23T15:58:56;14.00;99.90
14924;DHT22;7554;43.600;1.480;2022-11-23T16:01:25;13.90;99.90
14924;DHT22;7554;43.600;1.480;2022-11-23T16:03:53;13.80;99.90
14924;DHT22;7554;43.600;1.480;2022-11-23T16:06:47;13.60;99.90
14924;DHT22;7554;43.600;1.480;2022-11-23T16:09:35;13.40;92.10
14924;DHT22;7554;43.600;1.480;2022-11-23T16:12:08;13.20;1.00
14924;DHT22;7554;43.600;1.480;2022-11-23T16:14:45;13.10;1.00
14924;DHT22;7554;43.600;1.480;2022-11-23T16:17:16;13.00;1.00
14924;DHT22;7554;43.600;1.480;2022-11-23T16:19:49;12.90;1.00
14924;DHT22;7554;43.600;1.480;2022-11-23T16:22:25;12.80;1.00
14924;DHT22;7554;43.600;1.480;2022-11-23T16:25:00;12.70;1.00
14924;DHT22;7554;43.600;1.480;2022-11-23T16:27:28;12.70;1.00